createdAt,value
2022-11-09T00:00:02.637Z,100119.09
2022-11-09T00:02:29.086Z,100155.75
2022-11-09T00:04:57.752Z,100176.16
2022-11-09T00:07:24.147Z,100189.81
2022-11-09T00:09:50.599Z,100148.38
2022-11-09T00:12:19.270Z,100143.53
2022-11-09T00:14:45.718Z,100136.84
2022-11-09T00:17:12.200Z,100136.59
2022-11-09T00:19:41.731Z,100137.22
2022-11-09T00:22:08.658Z,100136.59
2022-11-09T00:24:35.439Z,100137.63
2022-11-09T00:27:01.872Z,100136.78
2022-11-09T00:29:28.548Z,100151.50
2022-11-09T00:31:55.089Z,100147.72
2022-11-09T00:34:23.853Z,100154.63
2022-11-09T00:36:50.228Z,100172.72
2022-11-09T00:39:16.748Z,100179.47
2022-11-09T00:41:43.159Z,100188.50
2022-11-09T00:44:09.672Z,100180.94
2022-11-09T00:46:36.375Z,100178.41
2022-11-09T00:49:05.008Z,100175.66
2022-11-09T00:51:33.602Z,100177.78
2022-11-09T00:54:00.076Z,100174.19
2022-11-09T00:56:29.530Z,100182.56
2022-11-09T00:58:56.181Z,100181.31
2022-11-09T01:01:23.058Z,100184.25
2022-11-09T01:03:49.724Z,100182.56
2022-11-09T01:06:19.146Z,100178.13
2022-11-09T01:08:46.650Z,100180.22
2022-11-09T01:11:16.053Z,100189.28
2022-11-09T01:13:42.527Z,100210.09
2022-11-09T01:16:11.835Z,100199.38
2022-11-09T01:18:38.985Z,100193.91
2022-11-09T01:21:10.151Z,100186.97
2022-11-09T01:23:37.153Z,100190.53
2022-11-09T01:26:14.049Z,100192.81
2022-11-09T01:28:43.466Z,100187.56
2022-11-09T01:31:15.759Z,100184.19
2022-11-09T01:33:42.590Z,100187.31
2022-11-09T01:36:12.122Z,100194.22
2022-11-09T01:38:39.439Z,100183.72
2022-11-09T01:41:07.704Z,100190.63
2022-11-09T01:43:37.280Z,100179.50
2022-11-09T01:46:14.362Z,100190.00
2022-11-09T01:48:46.078Z,100181.53
2022-11-09T01:51:18.746Z,100162.44
2022-11-09T01:53:49.692Z,100170.00
2022-11-09T01:56:18.284Z,100184.25
2022-11-09T01:58:50.467Z,100179.16
2022-11-09T02:01:17.868Z,100181.44
2022-11-09T02:03:55.971Z,100163.78
2022-11-09T02:06:25.585Z,100171.31
2022-11-09T02:08:56.447Z,100181.78
2022-11-09T02:11:24.036Z,100181.34
2022-11-09T02:13:56.991Z,100179.22
2022-11-09T02:16:24.237Z,100168.09
2022-11-09T02:18:53.985Z,100178.34
2022-11-09T02:21:24.688Z,100177.91
2022-11-09T02:23:51.793Z,100169.94
2022-11-09T02:26:24.310Z,100172.09
2022-11-09T02:28:54.372Z,100173.53
2022-11-09T02:31:22.663Z,100167.63
2022-11-09T02:34:00.055Z,100170.34
2022-11-09T02:36:28.576Z,100166.31
2022-11-09T02:38:56.356Z,100161.91
2022-11-09T02:41:23.998Z,100161.25
2022-11-09T02:43:52.455Z,100160.59
2022-11-09T02:46:33.677Z,100153.44
2022-11-09T02:49:03.727Z,100158.06
2022-11-09T02:51:30.515Z,100155.56
2022-11-09T02:53:56.930Z,100151.38
2022-11-09T02:56:23.569Z,100142.59
2022-11-09T02:58:50.101Z,100152.28
2022-11-09T03:01:16.521Z,100141.34
2022-11-09T03:03:43.105Z,100129.00
2022-11-09T03:06:09.585Z,100127.13
2022-11-09T03:08:36.818Z,100119.56
2022-11-09T03:11:03.349Z,100121.28
2022-11-09T03:13:29.720Z,100118.78
2022-11-09T03:15:56.138Z,100120.66
2022-11-09T03:18:22.516Z,100119.59
2022-11-09T03:20:48.877Z,100118.78
2022-11-09T03:23:15.306Z,100117.91
2022-11-09T03:25:41.702Z,100122.53
2022-11-09T03:28:10.415Z,100117.69
2022-11-09T03:30:37.026Z,100113.09
2022-11-09T03:33:09.921Z,100113.09
2022-11-09T03:35:38.613Z,100122.97
2022-11-09T03:38:07.374Z,100126.75
2022-11-09T03:40:33.806Z,100124.66
2022-11-09T03:43:00.230Z,100129.91
2022-11-09T03:45:28.844Z,100129.72
2022-11-09T03:48:00.356Z,100140.22
2022-11-09T03:50:34.109Z,100129.13
2022-11-09T03:53:01.124Z,100137.31
2022-11-09T03:55:28.603Z,100131.44
2022-11-09T03:57:55.290Z,100138.78
2022-11-09T04:00:23.302Z,100142.56
2022-11-09T04:02:50.108Z,100146.97
2022-11-09T04:05:17.029Z,100155.81
2022-11-09T04:07:50.725Z,100163.38
2022-11-09T04:10:18.224Z,100161.47
2022-11-09T04:12:44.748Z,100166.72
2022-11-09T04:15:15.380Z,100172.19
2022-11-09T04:17:41.906Z,100166.16
2022-11-09T04:20:09.055Z,100176.44
2022-11-09T04:22:35.527Z,100173.47
2022-11-09T04:25:02.044Z,100174.16
2022-11-09T04:27:29.942Z,100168.50
2022-11-09T04:29:56.670Z,100172.72
2022-11-09T04:32:26.024Z,100162.44
2022-11-09T04:34:54.946Z,100165.16
2022-11-09T04:37:23.714Z,100156.13
2022-11-09T04:39:52.563Z,100155.28
2022-11-09T04:42:19.301Z,100149.63
2022-11-09T04:44:45.710Z,100146.69
2022-11-09T04:47:12.094Z,100136.41
2022-11-09T04:49:38.453Z,100131.97
2022-11-09T04:52:04.835Z,100144.84
2022-11-09T04:54:31.329Z,100140.41
2022-11-09T04:56:57.686Z,100143.13
2022-11-09T04:59:24.034Z,100145.88
2022-11-09T05:01:50.468Z,100141.25
2022-11-09T05:04:16.908Z,100132.22
2022-11-09T05:06:43.340Z,100141.03
2022-11-09T05:09:09.848Z,100149.44
2022-11-09T05:11:37.040Z,100155.97
2022-11-09T05:14:06.117Z,100165.44
2022-11-09T05:16:34.859Z,100170.03
2022-11-09T05:19:01.246Z,100175.50
2022-11-09T05:21:27.695Z,100181.19
2022-11-09T05:24:00.081Z,100185.41
2022-11-09T05:26:29.016Z,100194.63
2022-11-09T05:28:55.790Z,100190.88
2022-11-09T05:31:22.274Z,100195.06
2022-11-09T05:33:50.739Z,100190.88
2022-11-09T05:36:20.028Z,100190.03
2022-11-09T05:38:49.464Z,100184.56
2022-11-09T05:41:18.498Z,100192.94
2022-11-09T05:43:45.265Z,100202.84
2022-11-09T05:46:13.482Z,100195.03
2022-11-09T05:48:40.254Z,100188.31
2022-11-09T05:51:08.708Z,100178.66
2022-11-09T05:53:35.553Z,100189.78
2022-11-09T05:56:05.079Z,100188.75
2022-11-09T05:58:36.184Z,100187.47
2022-11-09T06:01:05.938Z,100193.34
2022-11-09T06:03:32.657Z,100204.94
2022-11-09T06:06:08.339Z,100206.81
2022-11-09T06:08:35.455Z,100210.41
2022-11-09T06:11:06.287Z,100209.75
2022-11-09T06:13:33.307Z,100206.16
2022-11-09T06:16:01.531Z,100191.66
2022-11-09T06:18:32.030Z,100189.59
2022-11-09T06:21:01.511Z,100189.16
2022-11-09T06:23:31.160Z,100202.84
2022-11-09T06:25:59.714Z,100200.31
2022-11-09T06:28:26.852Z,100196.13
2022-11-09T06:30:53.661Z,100194.63
2022-11-09T06:33:20.375Z,100193.78
2022-11-09T06:35:49.788Z,100204.13
2022-11-09T06:38:18.509Z,100207.50
2022-11-09T06:40:45.222Z,100212.31
2022-11-09T06:43:11.916Z,100204.13
2022-11-09T06:45:38.275Z,100203.94
2022-11-09T06:48:05.086Z,100209.84
2022-11-09T06:50:34.826Z,100209.00
2022-11-09T06:53:08.314Z,100214.63
2022-11-09T06:55:36.200Z,100214.22
2022-11-09T06:58:07.743Z,100217.41
2022-11-09T07:00:34.305Z,100211.94
2022-11-09T07:03:00.787Z,100206.28
2022-11-09T07:05:27.436Z,100209.00
2022-11-09T07:07:58.778Z,100188.00
2022-11-09T07:10:25.259Z,100185.09
2022-11-09T07:12:59.787Z,100187.59
2022-11-09T07:15:26.203Z,100172.06
2022-11-09T07:17:56.992Z,100186.38
2022-11-09T07:20:27.010Z,100193.72
2022-11-09T07:22:55.983Z,100200.25
2022-11-09T07:25:23.037Z,100208.25
2022-11-09T07:27:49.510Z,100216.03
2022-11-09T07:30:20.737Z,100214.16
2022-11-09T07:33:08.213Z,100222.13
2022-11-09T07:35:38.490Z,100226.56
2022-11-09T07:38:05.116Z,100241.06
2022-11-09T07:40:31.510Z,100237.09
2022-11-09T07:42:59.811Z,100234.16
2022-11-09T07:45:27.175Z,100228.47
2022-11-09T07:47:58.382Z,100206.81
2022-11-09T07:50:25.907Z,100214.59
2022-11-09T07:52:56.159Z,100210.00
2022-11-09T07:55:23.206Z,100229.13
2022-11-09T07:57:51.620Z,100236.28
2022-11-09T08:00:23.345Z,100245.34
2022-11-09T08:02:50.028Z,100245.97
2022-11-09T08:05:16.612Z,100250.41
2022-11-09T08:07:43.095Z,100261.09
2022-11-09T08:10:10.099Z,100272.47
2022-11-09T08:12:37.360Z,100268.72
2022-11-09T08:15:07.295Z,100269.38
2022-11-09T08:17:35.859Z,100281.56
2022-11-09T08:20:03.049Z,100284.09
2022-11-09T08:22:29.445Z,100275.06
2022-11-09T08:24:58.251Z,100280.94
2022-11-09T08:27:24.809Z,100279.91
2022-11-09T08:29:51.172Z,100284.72
2022-11-09T08:32:17.529Z,100285.13
2022-11-09T08:34:49.991Z,100290.41
2022-11-09T08:37:16.955Z,100287.25
2022-11-09T08:39:45.890Z,100298.19
2022-11-09T08:42:14.749Z,100294.59
2022-11-09T08:44:41.112Z,100287.03
2022-11-09T08:47:07.509Z,100293.59
2022-11-09T08:49:35.040Z,100296.75
2022-11-09T08:52:01.446Z,100283.31
2022-11-09T08:54:27.963Z,100287.97
2022-11-09T08:56:57.597Z,100294.53
2022-11-09T08:59:26.425Z,100300.44
2022-11-09T09:01:55.218Z,100305.06
2022-11-09T09:04:21.696Z,100304.66
2022-11-09T09:06:48.099Z,100305.75
2022-11-09T09:09:16.951Z,100299.22
2022-11-09T09:11:43.390Z,100302.78
2022-11-09T09:14:09.746Z,100307.47
2022-11-09T09:16:36.116Z,100300.28
2022-11-09T09:19:04.893Z,100299.53
2022-11-09T09:21:31.377Z,100298.72
2022-11-09T09:23:58.006Z,100303.97
2022-11-09T09:26:27.070Z,100300.41
2022-11-09T09:28:53.464Z,100302.94
2022-11-09T09:31:19.952Z,100296.63
2022-11-09T09:33:47.455Z,100308.84
2022-11-09T09:36:21.479Z,100309.69
2022-11-09T09:38:54.823Z,100306.94
2022-11-09T09:41:28.480Z,100304.84
2022-11-09T09:43:59.028Z,100311.38
2022-11-09T09:46:44.328Z,100314.75
2022-11-09T09:49:19.031Z,100316.22
2022-11-09T09:51:52.194Z,100318.09
2022-11-09T09:54:25.873Z,100322.75
2022-11-09T09:56:57.217Z,100326.53
2022-11-09T09:59:40.887Z,100330.34
2022-11-09T10:02:28.351Z,100326.97
2022-11-09T10:04:57.905Z,100330.53
2022-11-09T10:07:56.461Z,100329.69
2022-11-09T10:10:40.120Z,100325.66
2022-11-09T10:13:43.830Z,100324.22
2022-11-09T10:16:14.283Z,100323.34
2022-11-09T10:18:59.398Z,100314.66
2022-11-09T10:21:58.237Z,100317.81
2022-11-09T10:24:48.533Z,100306.47
2022-11-09T10:27:30.213Z,100311.53
2022-11-09T10:29:59.063Z,100311.31
2022-11-09T10:32:31.489Z,100315.94
2022-11-09T10:35:13.215Z,100317.63
2022-11-09T10:37:41.180Z,100311.31
2022-11-09T10:40:16.866Z,100307.47
2022-11-09T10:43:05.382Z,100301.41
2022-11-09T10:45:37.738Z,100298.22
2022-11-09T10:48:08.518Z,100297.59
2022-11-09T10:50:39.224Z,100300.97
2022-11-09T10:53:18.159Z,100298.22
2022-11-09T10:56:04.346Z,100302.03
2022-11-09T10:58:38.398Z,100297.34
2022-11-09T11:01:13.762Z,100304.75
2022-11-09T11:03:42.105Z,100306.81
2022-11-09T11:06:14.477Z,100302.75
2022-11-09T11:08:45.885Z,100301.09
2022-11-09T11:11:33.766Z,100302.75
2022-11-09T11:14:29.227Z,100306.69
2022-11-09T11:16:56.164Z,100303.50
2022-11-09T11:19:37.446Z,100301.38
2022-11-09T11:22:27.361Z,100301.56
2022-11-09T11:25:11.569Z,100299.47
2022-11-09T11:27:44.976Z,100292.88
2022-11-09T11:30:15.788Z,100297.28
2022-11-09T11:32:48.856Z,100290.28
2022-11-09T11:35:26.921Z,100283.91
2022-11-09T11:38:17.763Z,100284.47
2022-11-09T11:40:53.948Z,100287.47
2022-11-09T11:43:32.128Z,100283.22
2022-11-09T11:46:22.254Z,100281.84
2022-11-09T11:49:06.469Z,100276.50
2022-11-09T11:51:54.490Z,100281.09
2022-11-09T11:54:49.167Z,100289.91
2022-11-09T11:57:45.294Z,100291.69
2022-11-09T12:00:21.251Z,100290.25
2022-11-09T12:03:03.330Z,100296.59
2022-11-09T12:05:32.490Z,100290.91
2022-11-09T12:08:21.268Z,100287.13
2022-11-09T12:11:08.843Z,100284.59
2022-11-09T12:13:49.761Z,100280.38
2022-11-09T12:16:21.602Z,100282.22
2022-11-09T12:19:05.676Z,100277.81
2022-11-09T12:21:37.995Z,100275.66
2022-11-09T12:24:30.643Z,100277.75
2022-11-09T12:27:31.746Z,100268.56
2022-11-09T12:30:08.312Z,100275.69
2022-11-09T12:32:40.502Z,100264.56
2022-11-09T12:35:25.452Z,100272.66
2022-11-09T12:38:02.373Z,100285.38
2022-11-09T12:40:36.537Z,100281.25
2022-11-09T12:43:21.808Z,100278.91
2022-11-09T12:45:51.201Z,100277.91
2022-11-09T12:48:35.274Z,100275.00
2022-11-09T12:51:05.241Z,100268.63
2022-11-09T12:53:39.237Z,100278.09
2022-11-09T12:56:19.057Z,100271.97
2022-11-09T12:58:45.935Z,100269.88
2022-11-09T13:01:33.986Z,100260.78
2022-11-09T13:04:03.745Z,100262.94
2022-11-09T13:06:32.264Z,100262.34
2022-11-09T13:09:05.710Z,100273.41
2022-11-09T13:11:38.003Z,100276.59
2022-11-09T13:14:22.513Z,100279.38
2022-11-09T13:16:50.445Z,100278.31
2022-11-09T13:19:38.085Z,100269.66
2022-11-09T13:22:13.365Z,100268.59
2022-11-09T13:25:02.971Z,100267.56
2022-11-09T13:27:40.369Z,100273.91
2022-11-09T13:30:28.317Z,100271.16
2022-11-09T13:33:06.948Z,100275.59
2022-11-09T13:35:42.655Z,100284.50
2022-11-09T13:38:16.707Z,100272.44
2022-11-09T13:40:50.480Z,100274.75
2022-11-09T13:43:30.382Z,100272.25
2022-11-09T13:46:01.442Z,100272.41
2022-11-09T13:48:34.627Z,100275.59
2022-11-09T13:51:04.633Z,100273.28
2022-11-09T13:53:37.129Z,100275.19
2022-11-09T13:56:40.639Z,100272.66
2022-11-09T13:59:33.355Z,100275.66
2022-11-09T14:02:01.747Z,100276.94
2022-11-09T14:04:34.002Z,100277.75
2022-11-09T14:07:07.568Z,100271.84
2022-11-09T14:10:18.858Z,100284.31
2022-11-09T14:13:06.739Z,100295.97
2022-11-09T14:15:42.484Z,100292.38
2022-11-09T14:18:14.036Z,100296.41
2022-11-09T14:20:58.317Z,100300.00
2022-11-09T14:23:30.249Z,100290.50
2022-11-09T14:25:57.365Z,100293.25
2022-11-09T14:28:26.618Z,100290.94
2022-11-09T14:30:53.822Z,100295.44
2022-11-09T14:33:26.570Z,100305.56
2022-11-09T14:35:57.203Z,100304.91
2022-11-09T14:38:31.304Z,100303.66
2022-11-09T14:40:57.871Z,100300.75
2022-11-09T14:43:38.817Z,100309.19
2022-11-09T14:46:14.469Z,100307.72
2022-11-09T14:48:49.503Z,100307.31
2022-11-09T14:51:16.546Z,100306.47
2022-11-09T14:53:44.222Z,100310.69
2022-11-09T14:56:13.884Z,100312.19
2022-11-09T14:58:42.548Z,100308.13
2022-11-09T15:01:18.118Z,100305.84
2022-11-09T15:03:45.450Z,100305.44
2022-11-09T15:06:17.196Z,100315.53
2022-11-09T15:09:00.242Z,100306.28
2022-11-09T15:11:35.939Z,100309.44
2022-11-09T15:14:18.950Z,100314.72
2022-11-09T15:16:49.458Z,100316.41
2022-11-09T15:19:52.892Z,100314.94
2022-11-09T15:22:40.558Z,100307.56
2022-11-09T15:25:19.092Z,100299.34
2022-11-09T15:27:56.213Z,100287.97
2022-11-09T15:30:39.809Z,100309.50
2022-11-09T15:33:21.450Z,100328.03
2022-11-09T15:36:04.785Z,100336.25
2022-11-09T15:38:34.010Z,100335.41
2022-11-09T15:41:01.072Z,100340.06
2022-11-09T15:43:30.586Z,100337.31
2022-11-09T15:46:00.481Z,100344.03
2022-11-09T15:48:30.073Z,100344.47
2022-11-09T15:50:59.098Z,100338.75
2022-11-09T15:53:26.126Z,100348.25
2022-11-09T15:55:52.651Z,100351.00
2022-11-09T15:58:19.850Z,100336.88
2022-11-09T16:00:46.533Z,100338.34
2022-11-09T16:03:13.631Z,100337.06
2022-11-09T16:05:42.315Z,100357.94
2022-11-09T16:08:09.450Z,100353.06
2022-11-09T16:10:39.865Z,100354.13
2022-11-09T16:13:10.270Z,100364.03
2022-11-09T16:15:37.649Z,100369.50
2022-11-09T16:18:04.582Z,100372.88
2022-11-09T16:20:31.243Z,100378.13
2022-11-09T16:22:57.852Z,100378.31
2022-11-09T16:25:24.237Z,100382.97
2022-11-09T16:27:51.524Z,100390.75
2022-11-09T16:30:19.279Z,100391.16
2022-11-09T16:32:45.719Z,100397.25
2022-11-09T16:35:28.431Z,100407.41
2022-11-09T16:37:57.920Z,100412.03
2022-11-09T16:40:25.832Z,100409.91
2022-11-09T16:42:52.327Z,100410.94
2022-11-09T16:45:22.027Z,100412.84
2022-11-09T16:47:56.846Z,100412.84
2022-11-09T16:50:24.103Z,100418.94
2022-11-09T16:52:50.549Z,100425.91
2022-11-09T16:55:17.204Z,100428.66
2022-11-09T16:57:43.579Z,100422.97
2022-11-09T17:00:10.511Z,100438.56
2022-11-09T17:02:36.949Z,100441.47
2022-11-09T17:05:03.963Z,100447.63
2022-11-09T17:07:30.366Z,100442.53
2022-11-09T17:09:57.019Z,100451.16
2022-11-09T17:12:23.430Z,100454.94
2022-11-09T17:14:49.785Z,100457.91
2022-11-09T17:17:22.229Z,100464.44
2022-11-09T17:19:49.140Z,100464.25
2022-11-09T17:22:15.868Z,100462.19
2022-11-09T17:24:42.788Z,100472.28
2022-11-09T17:27:10.312Z,100469.75
2022-11-09T17:29:37.801Z,100475.25
2022-11-09T17:32:09.332Z,100484.09
2022-11-09T17:34:36.036Z,100481.97
2022-11-09T17:37:04.642Z,100481.72
2022-11-09T17:39:31.829Z,100483.84
2022-11-09T17:41:58.210Z,100487.84
2022-11-09T17:44:24.671Z,100484.00
2022-11-09T17:46:53.550Z,100483.56
2022-11-09T17:49:20.033Z,100487.09
2022-11-09T17:51:46.420Z,100490.25
2022-11-09T17:54:15.145Z,100494.88
2022-11-09T17:56:41.834Z,100505.56
2022-11-09T17:59:11.296Z,100504.94
2022-11-09T18:01:41.496Z,100515.63
2022-11-09T18:04:13.050Z,100506.75
2022-11-09T18:06:39.623Z,100523.41
2022-11-09T18:11:55.529Z,100522.50
2022-11-09T18:14:24.515Z,100517.44
2022-11-09T18:16:51.032Z,100528.75
2022-11-09T18:19:17.519Z,100531.72
2022-11-09T18:21:47.394Z,100529.56
2022-11-09T18:24:14.292Z,100528.09
2022-11-09T18:26:40.747Z,100528.47
2022-11-09T18:29:09.720Z,100532.66
2022-11-09T18:31:36.186Z,100533.88
2022-11-09T18:34:02.696Z,100543.13
2022-11-09T18:36:29.075Z,100551.53
2022-11-09T18:38:55.908Z,100551.72
2022-11-09T18:41:24.037Z,100556.56
2022-11-09T18:43:51.587Z,100557.78
2022-11-09T18:46:19.757Z,100562.44
2022-11-09T18:48:50.962Z,100564.72
2022-11-09T18:51:17.695Z,100568.66
2022-11-09T18:53:45.852Z,100570.78
2022-11-09T18:56:18.619Z,100574.72
2022-11-09T18:58:46.095Z,100578.53
2022-11-09T19:01:12.957Z,100575.50
2022-11-09T19:03:39.657Z,100585.81
2022-11-09T19:06:14.608Z,100576.09
2022-11-09T19:08:59.500Z,100586.16
2022-11-09T19:11:29.992Z,100596.00
2022-11-09T19:13:57.033Z,100596.19
2022-11-09T19:16:24.806Z,100596.41
2022-11-09T19:18:51.371Z,100608.56
2022-11-09T19:21:34.688Z,100604.50
2022-11-09T19:24:03.704Z,100602.16
2022-11-09T19:26:30.253Z,100609.97
2022-11-09T19:28:56.739Z,100602.38
2022-11-09T19:31:24.397Z,100613.88
2022-11-09T19:33:54.439Z,100607.09
2022-11-09T19:36:31.255Z,100617.56
2022-11-09T19:38:58.115Z,100619.63
2022-11-09T19:41:25.520Z,100628.91
2022-11-09T19:43:58.387Z,100620.03
2022-11-09T19:46:31.985Z,100621.72
2022-11-09T19:48:58.555Z,100625.50
2022-11-09T19:51:25.352Z,100626.56
2022-11-09T19:53:55.098Z,100629.94
2022-11-09T19:56:23.722Z,100641.25
2022-11-09T19:58:51.949Z,100646.03
2022-11-09T20:01:19.048Z,100649.63
2022-11-09T20:03:49.859Z,100648.50
2022-11-09T20:06:17.115Z,100652.66
2022-11-09T20:08:43.594Z,100654.97
2022-11-09T20:11:34.572Z,100658.75
2022-11-09T20:14:03.555Z,100648.19
2022-11-09T20:16:30.301Z,100662.88
2022-11-09T20:18:59.601Z,100666.09
2022-11-09T20:21:26.171Z,100664.75
2022-11-09T20:23:52.804Z,100669.66
2022-11-09T20:26:21.818Z,100671.75
2022-11-09T20:28:48.251Z,100679.63
2022-11-09T20:31:22.060Z,100684.31
2022-11-09T20:33:49.791Z,100697.72
2022-11-09T20:36:16.327Z,100701.53
2022-11-09T20:38:42.841Z,100703.31
2022-11-09T20:41:11.231Z,100706.75
2022-11-09T20:43:38.429Z,100700.34
2022-11-09T20:46:07.212Z,100713.38
2022-11-09T20:51:21.463Z,100713.81
2022-11-09T20:53:49.727Z,100723.22
2022-11-09T20:56:16.675Z,100726.00
2022-11-09T20:58:43.216Z,100723.81
2022-11-09T21:01:14.233Z,100731.66
2022-11-09T21:03:41.467Z,100735.81
2022-11-09T21:06:09.358Z,100739.56
2022-11-09T21:08:36.418Z,100739.06
2022-11-09T21:11:04.981Z,100740.63
2022-11-09T21:13:32.022Z,100742.31
2022-11-09T21:16:09.371Z,100744.03
2022-11-09T21:18:36.048Z,100741.09
2022-11-09T21:21:10.743Z,100743.34
2022-11-09T21:23:56.604Z,100748.44
2022-11-09T21:26:45.251Z,100758.59
2022-11-09T21:29:33.772Z,100756.19
2022-11-09T21:32:00.407Z,100773.59
2022-11-09T21:34:30.364Z,100774.25
2022-11-09T21:36:59.169Z,100780.78
2022-11-09T21:39:25.907Z,100785.72
2022-11-09T21:41:52.335Z,100780.59
2022-11-09T21:44:18.831Z,100779.25
2022-11-09T21:46:45.407Z,100784.72
2022-11-09T21:49:13.590Z,100787.44
2022-11-09T21:51:40.822Z,100788.63
2022-11-09T21:54:08.359Z,100792.91
2022-11-09T21:56:35.069Z,100803.47
2022-11-09T21:59:01.520Z,100806.03
2022-11-09T22:01:28.138Z,100816.06
2022-11-09T22:03:54.802Z,100813.19
2022-11-09T22:06:25.507Z,100823.38
2022-11-09T22:08:51.931Z,100821.84
2022-11-09T22:11:21.199Z,100819.41
2022-11-09T22:14:06.040Z,100820.44
2022-11-09T22:16:36.297Z,100831.31
2022-11-09T22:19:21.584Z,100834.16
2022-11-09T22:21:50.520Z,100832.63
2022-11-09T22:24:16.943Z,100844.53
2022-11-09T22:26:43.407Z,100840.53
2022-11-09T22:29:11.944Z,100854.34
2022-11-09T22:31:40.987Z,100857.06
2022-11-09T22:34:07.440Z,100860.66
2022-11-09T22:36:36.997Z,100865.59
2022-11-09T22:39:03.660Z,100865.47
2022-11-09T22:41:30.194Z,100869.94
2022-11-09T22:43:57.094Z,100878.28
2022-11-09T22:46:23.797Z,100879.38
2022-11-09T22:48:52.699Z,100880.25
2022-11-09T22:51:19.574Z,100880.91
2022-11-09T22:53:53.075Z,100886.34
2022-11-09T22:56:22.061Z,100894.88
2022-11-09T22:58:52.236Z,100901.16
2022-11-09T23:01:20.247Z,100903.22
2022-11-09T23:03:46.915Z,100907.31
2022-11-09T23:06:20.350Z,100909.38
2022-11-09T23:08:47.195Z,100910.22
2022-11-09T23:11:19.620Z,100921.78
2022-11-09T23:13:51.090Z,100919.59
2022-11-09T23:16:17.971Z,100924.69
2022-11-09T23:18:54.108Z,100920.09
2022-11-09T23:21:35.252Z,100919.91
2022-11-09T23:24:06.735Z,100920.94
2022-11-09T23:26:34.190Z,100931.81
2022-11-09T23:29:01.049Z,100928.72
2022-11-09T23:31:30.051Z,100935.84
2022-11-09T23:33:57.896Z,100931.75
2022-11-09T23:36:26.579Z,100930.72
2022-11-09T23:38:55.229Z,100937.72
2022-11-09T23:41:21.747Z,100935.28
2022-11-09T23:43:49.986Z,100945.84
2022-11-09T23:46:18.093Z,100947.19
2022-11-09T23:48:47.496Z,100949.72
2022-11-09T23:51:14.025Z,100945.63
2022-11-09T23:53:40.414Z,100939.13
2022-11-09T23:56:09.463Z,100949.72
2022-11-09T23:58:37.060Z,100949.69
